Time;durP1;ratioP1;P1;durP2;ratioP2;P2;SDS_P1;SDS_P2;PMS_P1;PMS_P2;Temp;Humidity;BMP_temperature;BMP_pressure;BME280_temperature;BME280_humidity;BME280_pressure;Samples;Min_cycle;Max_cycle;Signal;HPM_P1;HPM_P2
2022/09/08 00:00:31;;;;;;;15.63;2.95;;;39.90;51.10;;;;;;5072264;28;20021;-65
2022/09/08 00:03:01;;;;;;;19.10;2.58;;;39.80;50.90;;;;;;5072322;28;20024;-64
2022/09/08 00:05:30;;;;;;;17.73;2.50;;;39.80;50.30;;;;;;5071438;28;20020;-66
2022/09/08 00:07:59;;;;;;;23.83;2.90;;;39.70;50.00;;;;;;5072278;28;20032;-67
2022/09/08 00:10:27;;;;;;;15.88;2.65;;;39.50;49.90;;;;;;5062404;28;20036;-66
2022/09/08 00:12:54;;;;;;;14.48;2.35;;;39.50;48.90;;;;;;5054053;28;20614;-63
2022/09/08 00:15:21;;;;;;;15.85;2.70;;;39.30;48.10;;;;;;5067041;28;20029;-67
2022/09/08 00:17:52;;;;;;;15.68;2.47;;;39.30;48.00;;;;;;5072297;28;20480;-65
2022/09/08 00:20:18;;;;;;;17.40;1.67;;;39.20;48.10;;;;;;5073218;28;20391;-64
2022/09/08 00:22:45;;;;;;;11.07;1.52;;;39.10;46.60;;;;;;5068624;28;20048;-66
2022/09/08 00:25:14;;;;;;;14.68;1.40;;;39.10;46.70;;;;;;5074196;28;20029;-64
2022/09/08 00:27:40;;;;;;;10.55;1.48;;;39.00;47.00;;;;;;5073389;28;20028;-66
2022/09/08 00:30:10;;;;;;;13.13;1.42;;;39.00;47.10;;;;;;5066530;28;20029;-64
2022/09/08 00:32:36;;;;;;;11.50;1.60;;;39.10;47.50;;;;;;5066198;28;20024;-66
2022/09/08 00:35:07;;;;;;;8.80;1.65;;;39.00;47.40;;;;;;5051670;28;20073;-64
2022/09/08 00:37:35;;;;;;;9.98;1.40;;;38.90;48.00;;;;;;5071145;28;20024;-66
2022/09/08 00:40:03;;;;;;;6.90;1.45;;;38.90;48.20;;;;;;5089179;28;20386;-64
2022/09/08 00:42:29;;;;;;;12.35;1.33;;;38.80;47.80;;;;;;5071783;28;20035;-65
2022/09/08 00:44:56;;;;;;;14.57;2.10;;;38.80;48.40;;;;;;5071425;28;20028;-64
2022/09/08 00:47:41;;;;;;;10.50;1.67;;;38.70;49.20;;;;;;5066432;28;20028;-65
2022/09/08 00:50:23;;;;;;;18.60;1.77;;;38.70;49.90;;;;;;5073198;28;20074;-66
2022/09/08 00:53:04;;;;;;;12.20;1.58;;;38.70;49.60;;;;;;5069652;28;20024;-65
2022/09/08 00:55:36;;;;;;;12.10;1.92;;;38.60;49.50;;;;;;5069669;28;20142;-65
2022/09/08 00:58:03;;;;;;;12.38;1.77;;;38.60;49.30;;;;;;5070614;28;20111;-64
2022/09/08 01:00:31;;;;;;;12.55;1.67;;;38.50;48.70;;;;;;5082675;28;20025;-66
2022/09/08 01:02:57;;;;;;;9.00;1.50;;;38.40;49.10;;;;;;5070299;28;20536;-66
2022/09/08 01:05:36;;;;;;;11.43;1.75;;;38.40;49.70;;;;;;5074117;28;20040;-63
2022/09/08 01:13:46;;;;;;;9.85;2.40;;;38.20;50.60;;;;;;5076499;28;20144;-65
2022/09/08 01:16:13;;;;;;;8.35;1.80;;;38.10;50.90;;;;;;5072713;28;20718;-64
2022/09/08 01:18:39;;;;;;;9.35;1.80;;;38.10;50.00;;;;;;5075790;28;20024;-64
2022/09/08 01:21:24;;;;;;;18.70;2.00;;;37.90;49.80;;;;;;5073167;28;20050;-65
2022/09/08 01:24:13;;;;;;;11.32;2.00;;;37.90;49.20;;;;;;5076428;28;20273;-63
2022/09/08 01:27:02;;;;;;;13.10;1.73;;;37.80;49.70;;;;;;5073466;28;20029;-64
2022/09/08 01:29:28;;;;;;;15.40;1.90;;;37.70;50.10;;;;;;5088895;28;20044;-66
2022/09/08 01:31:57;;;;;;;11.77;1.52;;;37.70;51.30;;;;;;5070743;28;20017;-64
2022/09/08 01:34:24;;;;;;;14.27;2.03;;;37.60;51.00;;;;;;5075967;28;20025;-65
2022/09/08 01:36:50;;;;;;;13.75;2.00;;;37.60;51.20;;;;;;5070166;28;20403;-67
2022/09/08 01:39:17;;;;;;;11.98;1.92;;;37.50;51.20;;;;;;5070821;28;20531;-66
2022/09/08 01:41:43;;;;;;;17.95;1.90;;;37.40;51.30;;;;;;5060605;28;20504;-65
2022/09/08 01:44:10;;;;;;;11.93;1.85;;;37.40;51.40;;;;;;5073976;28;20024;-66
2022/09/08 01:46:36;;;;;;;10.20;1.90;;;37.30;51.40;;;;;;5073776;28;20031;-65
2022/09/08 01:49:03;;;;;;;13.80;1.75;;;37.30;51.70;;;;;;5074499;28;20393;-66
2022/09/08 01:51:29;;;;;;;9.30;2.03;;;37.30;52.00;;;;;;5071821;28;20028;-64
2022/09/08 01:53:55;;;;;;;8.13;1.40;;;37.20;51.70;;;;;;5073569;28;20099;-61
2022/09/08 01:56:22;;;;;;;16.55;1.55;;;37.20;52.10;;;;;;5073549;28;20048;-64
2022/09/08 01:58:48;;;;;;;12.82;1.77;;;37.10;52.20;;;;;;5074045;28;20021;-64
2022/09/08 02:01:15;;;;;;;13.55;1.85;;;37.00;52.00;;;;;;5069960;28;20074;-60
2022/09/08 02:03:41;;;;;;;20.27;2.45;;;37.00;52.20;;;;;;5071035;28;20017;-62
2022/09/08 02:06:09;;;;;;;12.57;2.10;;;36.90;52.20;;;;;;5077862;28;20085;-61
2022/09/08 02:08:35;;;;;;;22.23;2.33;;;36.90;52.20;;;;;;5054606;28;20024;-63
2022/09/08 02:11:03;;;;;;;21.55;2.45;;;36.90;52.40;;;;;;5069888;28;20490;-63
2022/09/08 02:13:30;;;;;;;18.70;2.88;;;36.80;52.10;;;;;;5085690;28;20025;-66
2022/09/08 02:16:01;;;;;;;17.60;2.05;;;36.70;52.00;;;;;;5075007;28;20037;-63
2022/09/08 02:18:32;;;;;;;15.73;2.40;;;36.70;51.80;;;;;;5075676;28;20024;-62
2022/09/08 02:21:18;;;;;;;26.52;2.80;;;36.70;51.80;;;;;;5071550;28;20051;-64
2022/09/08 02:23:47;;;;;;;23.95;2.15;;;36.60;51.70;;;;;;5053811;28;20472;-63
2022/09/08 02:26:23;;;;;;;20.98;2.63;;;36.60;51.90;;;;;;5072383;28;20620;-63
2022/09/08 02:28:53;;;;;;;21.92;2.50;;;36.60;51.80;;;;;;5072072;28;20044;-63
2022/09/08 02:31:24;;;;;;;17.52;2.03;;;36.60;51.60;;;;;;5090230;28;20024;-62
2022/09/08 02:33:51;;;;;;;18.60;2.65;;;36.60;51.60;;;;;;5074127;28;20023;-63
2022/09/08 02:36:17;;;;;;;23.85;2.20;;;36.50;51.60;;;;;;5053243;28;20494;-63
2022/09/08 02:38:52;;;;;;;18.60;2.08;;;36.50;51.70;;;;;;5073898;28;20170;-65
2022/09/08 02:41:19;;;;;;;26.97;3.40;;;36.50;51.70;;;;;;5075952;28;20475;-60
2022/09/08 02:43:46;;;;;;;16.17;2.22;;;36.40;51.70;;;;;;5059967;28;20497;-64
2022/09/08 02:46:13;;;;;;;16.85;2.97;;;36.40;51.80;;;;;;5070657;28;20157;-62
2022/09/08 02:48:39;;;;;;;17.73;2.47;;;36.40;52.10;;;;;;5070109;28;20475;-63
2022/09/08 02:51:08;;;;;;;18.27;2.65;;;36.30;52.20;;;;;;5077029;28;20383;-65
2022/09/08 02:53:36;;;;;;;17.50;2.42;;;36.30;52.50;;;;;;5072727;28;20055;-65
2022/09/08 02:56:03;;;;;;;23.88;2.78;;;36.20;52.60;;;;;;5082842;28;20704;-66
2022/09/08 02:58:29;;;;;;;14.95;2.28;;;36.20;52.70;;;;;;5053805;28;20474;-64
2022/09/08 03:00:56;;;;;;;19.67;2.83;;;36.20;52.60;;;;;;5071755;28;20559;-66
2022/09/08 03:03:24;;;;;;;13.40;2.00;;;36.20;52.70;;;;;;5072832;28;20486;-64
2022/09/08 03:05:52;;;;;;;19.42;2.40;;;36.20;52.80;;;;;;5053227;28;20024;-65
2022/09/08 03:08:20;;;;;;;15.45;2.90;;;36.10;53.10;;;;;;5070339;28;20115;-65
2022/09/08 03:10:51;;;;;;;26.20;2.78;;;36.00;53.00;;;;;;5054154;28;20043;-65
2022/09/08 03:13:18;;;;;;;16.98;1.95;;;36.10;53.00;;;;;;5056794;28;20037;-64
2022/09/08 03:15:45;;;;;;;17.42;1.88;;;36.00;53.10;;;;;;5073187;28;20081;-65
2022/09/08 03:18:11;;;;;;;14.43;1.75;;;36.00;53.30;;;;;;5073278;28;20355;-65
2022/09/08 03:20:40;;;;;;;12.13;1.75;;;35.90;53.40;;;;;;5070843;28;20020;-66
2022/09/08 03:23:06;;;;;;;7.40;1.65;;;35.90;53.60;;;;;;5074224;28;20044;-64
2022/09/08 03:25:39;;;;;;;19.73;2.28;;;35.80;54.00;;;;;;5074155;28;20032;-65
2022/09/08 03:28:07;;;;;;;10.30;1.63;;;35.80;54.10;;;;;;5072525;28;20551;-65
2022/09/08 03:30:33;;;;;;;11.95;1.80;;;35.80;54.30;;;;;;5075042;28;20043;-65
2022/09/08 03:33:00;;;;;;;13.98;2.35;;;35.70;54.50;;;;;;5074676;28;20031;-65
2022/09/08 03:35:26;;;;;;;13.05;2.50;;;35.70;54.70;;;;;;5069046;28;20025;-66
2022/09/08 03:37:54;;;;;;;12.25;1.42;;;35.60;54.90;;;;;;5067962;28;20025;-65
2022/09/08 03:40:20;;;;;;;12.23;2.00;;;35.50;55.40;;;;;;5072358;28;20044;-65
2022/09/08 03:42:47;;;;;;;18.35;1.90;;;35.40;55.70;;;;;;5074015;28;20032;-65
2022/09/08 03:45:16;;;;;;;22.65;2.38;;;35.40;56.00;;;;;;5052537;28;20061;-65
2022/09/08 03:47:43;;;;;;;13.88;2.60;;;35.30;56.20;;;;;;5066708;28;20029;-67
2022/09/08 03:50:12;;;;;;;16.42;2.47;;;35.30;56.30;;;;;;5051700;28;20092;-60
2022/09/08 03:52:38;;;;;;;13.88;2.22;;;35.30;56.60;;;;;;5073042;28;20110;-64
2022/09/08 03:55:05;;;;;;;13.00;2.20;;;35.10;56.90;;;;;;5071945;28;20146;-65
2022/09/08 03:57:32;;;;;;;18.33;2.42;;;35.20;57.10;;;;;;5070185;28;20025;-65
2022/09/08 03:59:59;;;;;;;17.67;2.42;;;35.00;57.40;;;;;;5052021;28;20496;-66
2022/09/08 04:02:27;;;;;;;12.05;1.90;;;34.90;58.10;;;;;;5069890;28;20024;-64
2022/09/08 04:04:56;;;;;;;16.52;2.60;;;34.90;58.60;;;;;;5067787;28;20042;-66
2022/09/08 04:07:24;;;;;;;15.82;2.50;;;34.90;59.00;;;;;;5070347;28;20028;-63
2022/09/08 04:09:51;;;;;;;12.98;2.60;;;34.80;59.50;;;;;;5069699;28;20041;-64
2022/09/08 04:12:18;;;;;;;14.70;2.42;;;34.80;59.90;;;;;;5082303;28;20043;-68
2022/09/08 04:14:50;;;;;;;15.23;3.25;;;34.50;60.30;;;;;;5065489;28;20457;-66
2022/09/08 04:17:18;;;;;;;19.33;4.25;;;34.50;60.60;;;;;;5073596;28;20062;-65
2022/09/08 04:19:47;;;;;;;21.60;3.90;;;34.50;60.90;;;;;;5067116;28;20024;-64
2022/09/08 04:22:13;;;;;;;20.45;2.45;;;34.40;60.80;;;;;;5069718;28;20092;-64
2022/09/08 04:24:40;;;;;;;23.55;2.22;;;34.40;60.50;;;;;;5066532;28;20851;-65
2022/09/08 04:27:06;;;;;;;19.33;2.40;;;34.30;60.00;;;;;;5065923;28;20113;-66
2022/09/08 04:29:34;;;;;;;24.13;2.45;;;34.20;59.60;;;;;;5067006;28;20036;-66
2022/09/08 04:32:00;;;;;;;17.25;2.40;;;34.20;59.10;;;;;;5055213;28;20403;-66
2022/09/08 04:34:26;;;;;;;17.00;1.98;;;34.10;59.30;;;;;;5073766;28;20081;-64
2022/09/08 04:36:53;;;;;;;24.17;2.92;;;34.00;59.10;;;;;;5050243;28;20096;-66
2022/09/08 04:39:20;;;;;;;28.50;2.67;;;33.90;58.60;;;;;;5069485;28;20134;-66
2022/09/08 04:41:47;;;;;;;43.78;3.72;;;33.90;58.40;;;;;;5069371;28;20044;-65
2022/09/08 04:44:14;;;;;;;34.03;2.63;;;33.80;58.20;;;;;;5056631;28;20057;-65
2022/09/08 04:46:40;;;;;;;38.22;4.05;;;33.80;58.20;;;;;;5067876;28;20930;-65
2022/09/08 04:49:07;;;;;;;38.78;3.33;;;33.80;58.20;;;;;;5066784;28;20036;-66
2022/09/08 04:51:34;;;;;;;41.72;3.75;;;33.70;58.30;;;;;;5071438;28;20393;-65
2022/09/08 04:54:01;;;;;;;46.40;3.47;;;33.60;58.50;;;;;;5073239;28;20133;-66
2022/09/08 04:56:28;;;;;;;64.82;4.50;;;33.50;58.50;;;;;;5084368;28;20037;-64
2022/09/08 04:58:55;;;;;;;48.58;4.03;;;33.60;58.60;;;;;;5066946;28;20036;-65
2022/09/08 05:01:31;;;;;;;50.95;4.45;;;33.50;58.60;;;;;;5070557;28;20045;-66
2022/09/08 05:04:00;;;;;;;35.67;3.25;;;33.50;58.50;;;;;;5051131;28;20046;-65
2022/09/08 05:06:28;;;;;;;50.17;3.55;;;33.40;58.50;;;;;;5050760;28;20038;-67
2022/09/08 05:08:56;;;;;;;50.60;3.17;;;33.40;58.50;;;;;;5068745;28;20070;-65
2022/09/08 05:11:24;;;;;;;53.22;3.80;;;33.30;58.50;;;;;;5071978;28;20038;-67
2022/09/08 05:13:51;;;;;;;56.65;4.40;;;33.30;58.60;;;;;;5068231;28;20126;-66
2022/09/08 05:16:20;;;;;;;43.05;3.70;;;33.30;58.50;;;;;;5066004;28;20053;-68
2022/09/08 05:18:52;;;;;;;32.53;3.25;;;33.20;58.40;;;;;;5073884;28;20496;-67
2022/09/08 05:21:19;;;;;;;52.70;5.20;;;33.20;58.50;;;;;;5068114;28;20387;-64
2022/09/08 05:23:48;;;;;;;34.13;3.50;;;33.20;58.60;;;;;;5073904;28;20430;-65
2022/09/08 05:26:15;;;;;;;48.72;3.22;;;33.10;58.70;;;;;;5068557;28;20047;-66
2022/09/08 05:28:43;;;;;;;38.25;2.92;;;33.10;58.70;;;;;;5071589;28;20532;-65
2022/09/08 05:31:15;;;;;;;36.03;3.15;;;33.10;58.70;;;;;;5067146;28;20084;-65
2022/09/08 05:33:42;;;;;;;65.60;4.05;;;33.10;58.70;;;;;;5066184;28;20621;-67
2022/09/08 05:36:15;;;;;;;65.35;3.55;;;33.10;59.40;;;;;;5064653;28;20066;-66
2022/09/08 05:38:42;;;;;;;63.60;3.70;;;33.10;59.00;;;;;;5071427;28;20037;-66
2022/09/08 05:41:09;;;;;;;60.47;4.35;;;33.10;59.20;;;;;;5066155;28;20610;-68
2022/09/08 05:43:37;;;;;;;48.30;3.90;;;32.90;59.40;;;;;;5066350;28;20069;-67
2022/09/08 05:46:04;;;;;;;54.10;4.50;;;32.90;59.80;;;;;;5072212;28;20046;-72
2022/09/08 05:48:31;;;;;;;56.15;5.07;;;32.80;60.00;;;;;;5071381;28;20068;-67
2022/09/08 05:50:57;;;;;;;68.38;5.22;;;32.80;60.50;;;;;;5070622;28;20075;-67
2022/09/08 05:53:24;;;;;;;94.45;6.38;;;32.80;60.80;;;;;;5074487;28;20043;-66
2022/09/08 05:55:59;;;;;;;89.25;5.55;;;32.80;61.00;;;;;;5069356;28;20094;-65
2022/09/08 05:58:27;;;;;;;89.25;6.18;;;32.70;61.20;;;;;;5073166;28;20086;-66
2022/09/08 06:01:03;;;;;;;96.65;5.50;;;32.70;61.40;;;;;;5075094;28;20500;-66
2022/09/08 06:03:29;;;;;;;98.18;6.65;;;32.60;61.80;;;;;;5070185;28;20453;-64
2022/09/08 06:06:01;;;;;;;126.38;7.55;;;32.60;62.10;;;;;;5072415;28;20060;-64
2022/09/08 06:08:27;;;;;;;96.15;6.78;;;32.60;62.40;;;;;;5071812;28;20131;-66
2022/09/08 06:10:54;;;;;;;102.72;8.05;;;32.60;62.60;;;;;;5075587;28;20118;-64
2022/09/08 06:13:21;;;;;;;104.93;7.40;;;32.50;62.80;;;;;;5067599;28;20062;-67
2022/09/08 06:15:49;;;;;;;106.07;8.35;;;32.50;62.90;;;;;;5074171;28;20062;-66
2022/09/08 06:18:16;;;;;;;97.13;6.13;;;32.50;63.00;;;;;;5074806;28;20046;-66
2022/09/08 06:20:44;;;;;;;105.65;6.20;;;32.50;63.40;;;;;;5054431;28;20092;-66
2022/09/08 06:23:11;;;;;;;94.05;5.88;;;32.40;63.50;;;;;;5072587;28;20084;-65
2022/09/08 06:25:43;;;;;;;88.05;5.38;;;32.50;63.80;;;;;;5073729;28;20073;-66
2022/09/08 06:28:28;;;;;;;99.68;6.18;;;32.40;63.80;;;;;;5073893;28;20075;-65
2022/09/08 06:30:56;;;;;;;69.43;5.03;;;32.40;63.70;;;;;;5085683;28;20048;-63
2022/09/08 06:33:45;;;;;;;79.25;5.45;;;32.40;63.70;;;;;;5073075;28;20433;-65
2022/09/08 06:36:22;;;;;;;59.00;4.05;;;32.40;63.80;;;;;;5085185;28;20103;-66
2022/09/08 06:39:00;;;;;;;58.70;4.78;;;32.40;63.70;;;;;;5069712;28;20086;-66
2022/09/08 06:41:36;;;;;;;38.65;4.00;;;32.30;63.70;;;;;;5085883;28;20549;-66
2022/09/08 06:44:19;;;;;;;30.05;3.25;;;32.30;63.60;;;;;;5054682;28;20062;-65
2022/09/08 06:46:46;;;;;;;17.52;1.98;;;32.30;63.90;;;;;;5057188;28;20105;-65
2022/09/08 06:49:13;;;;;;;38.63;2.65;;;32.30;63.90;;;;;;5070227;28;20096;-67
2022/09/08 06:52:00;;;;;;;27.80;2.13;;;32.30;63.90;;;;;;5071014;28;20044;-65
2022/09/08 06:54:41;;;;;;;18.17;1.98;;;32.30;63.80;;;;;;5072512;28;20067;-66
2022/09/08 06:57:51;;;;;;;17.02;1.50;;;32.40;63.70;;;;;;5073644;28;20050;-66
2022/09/08 07:00:46;;;;;;;13.40;1.40;;;32.40;63.50;;;;;;5052130;28;20169;-66
2022/09/08 07:03:44;;;;;;;21.23;1.83;;;32.40;63.30;;;;;;5067047;28;20128;-64
2022/09/08 07:06:11;;;;;;;12.50;1.55;;;32.40;63.00;;;;;;5084733;28;20049;-66
2022/09/08 07:08:59;;;;;;;9.18;1.27;;;32.40;63.00;;;;;;5068545;28;20475;-67
2022/09/08 07:11:32;;;;;;;15.15;1.40;;;32.30;63.20;;;;;;5084024;28;20050;-67
2022/09/08 07:14:26;;;;;;;16.90;1.92;;;32.30;63.30;;;;;;5083677;28;20081;-66
2022/09/08 07:17:19;;;;;;;19.05;1.60;;;32.30;63.40;;;;;;5071352;28;20065;-65
2022/09/08 07:19:54;;;;;;;10.23;1.40;;;32.30;63.20;;;;;;5072920;28;20052;-65
2022/09/08 07:22:36;;;;;;;13.75;1.30;;;32.30;63.20;;;;;;5073184;28;20081;-67
2022/09/08 07:25:25;;;;;;;10.13;1.10;;;32.30;63.10;;;;;;5072901;28;20047;-66
2022/09/08 07:28:00;;;;;;;17.23;1.52;;;32.30;63.10;;;;;;5071535;28;20061;-66
2022/09/08 07:30:26;;;;;;;18.63;1.50;;;32.20;62.90;;;;;;5087951;28;20050;-65
2022/09/08 07:33:14;;;;;;;24.05;2.42;;;32.20;62.80;;;;;;5072603;28;20478;-65
2022/09/08 07:35:44;;;;;;;22.75;2.25;;;32.20;62.60;;;;;;5086942;28;20059;-66
2022/09/08 07:38:21;;;;;;;23.27;1.58;;;32.20;62.40;;;;;;5085527;28;20041;-66
2022/09/08 07:40:52;;;;;;;21.45;2.20;;;32.30;62.20;;;;;;5084419;28;20115;-66
2022/09/08 07:43:18;;;;;;;40.90;2.15;;;32.30;62.00;;;;;;5072585;28;20417;-68
2022/09/08 07:46:13;;;;;;;36.78;2.60;;;32.20;61.80;;;;;;5067412;28;20425;-65
2022/09/08 07:49:07;;;;;;;48.00;3.33;;;32.20;61.50;;;;;;5073682;28;20107;-63
2022/09/08 07:51:56;;;;;;;76.93;4.05;;;32.20;61.20;;;;;;5085685;28;20054;-62
2022/09/08 07:54:29;;;;;;;42.55;3.47;;;32.20;60.80;;;;;;5055074;28;20416;-63
2022/09/08 07:57:11;;;;;;;65.75;5.03;;;32.40;60.20;;;;;;5083589;28;20094;-63
2022/09/08 08:00:09;;;;;;;55.28;4.82;;;32.60;59.60;;;;;;5037290;28;20047;-64
2022/09/08 08:03:07;;;;;;;66.07;4.43;;;32.60;59.10;;;;;;5073051;28;20491;-62
2022/09/08 08:05:48;;;;;;;42.50;4.45;;;32.70;58.80;;;;;;5071937;28;20155;-63
2022/09/08 08:08:36;;;;;;;37.75;3.17;;;32.80;58.30;;;;;;5052151;28;20142;-66
2022/09/08 08:11:13;;;;;;;28.08;2.45;;;32.80;58.10;;;;;;5082715;28;20096;-65
2022/09/08 08:13:57;;;;;;;26.67;2.50;;;32.80;57.90;;;;;;5071595;28;20193;-64
2022/09/08 08:16:50;;;;;;;13.15;1.52;;;32.70;57.60;;;;;;5070921;28;20063;-63
2022/09/08 08:19:25;;;;;;;17.85;1.67;;;32.70;57.60;;;;;;5076262;28;20080;-63
2022/09/08 08:22:22;;;;;;;16.40;1.70;;;32.80;57.50;;;;;;5072402;28;20086;-63
2022/09/08 08:25:10;;;;;;;12.50;1.85;;;32.90;57.20;;;;;;5073429;28;20059;-65
2022/09/08 08:27:49;;;;;;;14.50;1.67;;;32.80;57.20;;;;;;5066842;28;20063;-64
2022/09/08 08:30:21;;;;;;;8.98;1.13;;;32.90;56.80;;;;;;5050808;28;20084;-63
2022/09/08 08:33:24;;;;;;;14.60;1.50;;;32.80;56.70;;;;;;5052785;28;20087;-64
2022/09/08 08:36:00;;;;;;;13.55;1.10;;;32.80;56.70;;;;;;5065460;28;20542;-64
2022/09/08 08:38:35;;;;;;;9.43;1.60;;;32.90;56.40;;;;;;5036882;28;20047;-63
2022/09/08 08:41:22;;;;;;;4.93;1.38;;;32.90;56.20;;;;;;5065668;28;20115;-64
2022/09/08 08:43:55;;;;;;;;;;;32.90;56.60;;;;;;5073511;28;20525;-65
2022/09/08 08:47:08;;;;;;;7.15;1.60;;;32.90;55.80;;;;;;5084400;28;19957;-64
2022/09/08 08:49:56;;;;;;;9.32;1.27;;;32.90;55.70;;;;;;5071321;28;20512;-64
2022/09/08 08:52:46;;;;;;;6.57;1.88;;;32.90;55.30;;;;;;5074063;28;20058;-64
2022/09/08 08:55:43;;;;;;;8.48;1.65;;;32.90;55.10;;;;;;5066547;28;20113;-63
2022/09/08 08:58:40;;;;;;;9.77;1.95;;;32.90;54.60;;;;;;5083362;28;20112;-65
2022/09/08 09:01:43;;;;;;;15.43;2.13;;;32.80;54.00;;;;;;5087770;28;20053;-67
2022/09/08 09:04:34;;;;;;;4.70;1.35;;;32.80;53.60;;;;;;5084158;28;20284;-64
2022/09/08 09:07:12;;;;;;;8.88;1.80;;;32.90;53.30;;;;;;5082966;28;20508;-66
2022/09/08 09:09:47;;;;;;;4.28;1.27;;;32.80;53.10;;;;;;5050836;28;20176;-64
2022/09/08 09:12:39;;;;;;;9.33;1.60;;;32.80;53.10;;;;;;5073270;28;20035;-65
2022/09/08 09:15:24;;;;;;;14.10;1.48;;;32.80;52.80;;;;;;5068698;28;20310;-64
2022/09/08 09:18:16;;;;;;;11.23;1.75;;;32.80;52.80;;;;;;5084957;28;20130;-64
2022/09/08 09:20:57;;;;;;;11.70;1.88;;;32.80;52.70;;;;;;5066630;28;20047;-65
2022/09/08 09:24:01;;;;;;;12.30;1.45;;;32.80;52.60;;;;;;5070767;28;20076;-64
2022/09/08 09:26:34;;;;;;;9.38;1.10;;;32.80;52.40;;;;;;5088795;28;20147;-63
2022/09/08 09:29:21;;;;;;;15.75;3.00;;;32.80;52.40;;;;;;5070472;28;20440;-64
2022/09/08 09:32:25;;;;;;;17.48;2.40;;;32.80;52.20;;;;;;5089195;28;20406;-64
2022/09/08 09:35:23;;;;;;;16.42;2.85;;;32.80;52.20;;;;;;5090394;28;20069;-63
2022/09/08 09:38:10;;;;;;;15.90;2.85;;;32.70;52.30;;;;;;5059144;28;20088;-64
2022/09/08 09:40:50;;;;;;;20.52;2.58;;;32.70;53.10;;;;;;5092179;28;20120;-65
2022/09/08 09:43:47;;;;;;;9.80;2.13;;;32.60;53.50;;;;;;5076604;28;20080;-63
2022/09/08 09:46:38;;;;;;;9.43;2.08;;;32.60;53.50;;;;;;5086698;28;20048;-63
2022/09/08 09:49:05;;;;;;;7.18;1.98;;;32.50;53.60;;;;;;5084880;28;20033;-63
2022/09/08 09:51:43;;;;;;;10.02;2.17;;;32.60;53.50;;;;;;5075313;28;20136;-63
2022/09/08 09:54:29;;;;;;;10.65;1.23;;;32.60;53.30;;;;;;5070449;28;20056;-64
2022/09/08 09:57:14;;;;;;;8.63;1.73;;;32.70;53.00;;;;;;5067993;28;20523;-66
2022/09/08 10:00:06;;;;;;;6.88;1.65;;;32.70;53.40;;;;;;5085281;28;20053;-62
2022/09/08 10:02:54;;;;;;;8.70;1.70;;;32.70;53.00;;;;;;5087085;28;20053;-65
2022/09/08 10:05:57;;;;;;;4.47;1.50;;;32.70;53.10;;;;;;5085863;28;20180;-63
2022/09/08 10:08:45;;;;;;;5.20;1.55;;;32.70;53.00;;;;;;5068534;28;20424;-63
2022/09/08 10:11:59;;;;;;;7.20;1.80;;;32.70;52.50;;;;;;5085331;28;20056;-63
2022/09/08 10:14:55;;;;;;;7.82;1.73;;;32.70;52.30;;;;;;5032328;28;20064;-64
2022/09/08 10:17:37;;;;;;;7.78;1.38;;;32.70;52.30;;;;;;5033139;28;20089;-63
2022/09/08 10:20:47;;;;;;;7.38;1.33;;;32.70;51.90;;;;;;5033023;28;20123;-63
2022/09/08 10:23:33;;;;;;;5.72;1.60;;;32.70;51.90;;;;;;5048986;28;20082;-64
2022/09/08 10:25:59;;;;;;;11.70;2.40;;;32.60;51.70;;;;;;5032632;28;20061;-63
2022/09/08 10:28:58;;;;;;;16.80;2.97;;;32.60;51.50;;;;;;5031529;28;20044;-65
2022/09/08 10:31:27;;;;;;;22.70;3.38;;;32.60;51.40;;;;;;5049062;28;20131;-63
2022/09/08 10:34:02;;;;;;;12.80;3.35;;;32.70;51.20;;;;;;5048766;28;20091;-64
2022/09/08 10:37:11;;;;;;;9.23;3.30;;;32.70;51.40;;;;;;5047963;28;20068;-62
2022/09/08 10:40:04;;;;;;;13.95;2.65;;;32.70;51.10;;;;;;4987240;28;20113;-62
2022/09/08 10:42:43;;;;;;;6.70;1.70;;;32.70;51.00;;;;;;4984476;28;20053;-65
2022/09/08 10:45:39;;;;;;;5.07;1.10;;;32.70;51.00;;;;;;4966855;28;20083;-64
2022/09/08 10:48:33;;;;;;;4.15;1.17;;;32.70;50.70;;;;;;4960540;28;20075;-62
2022/09/08 10:51:15;;;;;;;5.47;1.60;;;32.70;50.70;;;;;;4993804;28;20102;-62
2022/09/08 10:53:59;;;;;;;6.50;1.45;;;32.70;50.60;;;;;;4973274;28;20453;-63
2022/09/08 10:56:28;;;;;;;9.50;1.52;;;32.70;50.60;;;;;;4986279;28;20078;-63
2022/09/08 10:59:28;;;;;;;6.38;1.40;;;32.60;50.80;;;;;;4976288;28;20076;-63
2022/09/08 11:02:16;;;;;;;2.97;1.35;;;32.60;50.80;;;;;;4987818;28;20387;-66
2022/09/08 11:05:03;;;;;;;5.45;1.30;;;32.60;50.90;;;;;;4989559;28;20709;-63
2022/09/08 11:08:06;;;;;;;4.47;1.20;;;32.50;51.90;;;;;;4990938;28;20535;-63
2022/09/08 11:10:45;;;;;;;8.25;1.25;;;32.50;51.90;;;;;;4992383;28;20415;-62
2022/09/08 11:13:27;;;;;;;9.70;2.40;;;32.40;52.70;;;;;;4973598;28;20236;-63
2022/09/08 11:16:21;;;;;;;2.75;0.88;;;32.30;53.30;;;;;;5070577;28;20070;-65
2022/09/08 11:19:00;;;;;;;3.17;1.30;;;32.20;54.10;;;;;;5089716;28;20076;-64
2022/09/08 11:21:31;;;;;;;2.20;1.02;;;32.10;53.80;;;;;;5089376;28;20025;-63
2022/09/08 11:24:25;;;;;;;3.90;0.77;;;32.10;53.90;;;;;;5071317;28;20090;-62
2022/09/08 11:27:19;;;;;;;5.63;1.35;;;32.10;53.50;;;;;;5073533;28;20046;-63
2022/09/08 11:30:11;;;;;;;7.72;1.50;;;32.10;53.80;;;;;;5069983;28;20051;-63
2022/09/08 11:33:02;;;;;;;11.45;1.38;;;32.10;53.80;;;;;;5056449;28;20070;-63
2022/09/08 11:35:35;;;;;;;7.05;1.23;;;32.10;54.00;;;;;;5070854;28;20062;-64
2022/09/08 11:38:27;;;;;;;5.38;1.50;;;32.00;54.30;;;;;;5071159;28;20063;-63
2022/09/08 11:41:15;;;;;;;8.13;1.48;;;31.90;54.00;;;;;;5084381;28;20394;-63
2022/09/08 11:44:34;;;;;;;12.38;1.60;;;32.00;54.00;;;;;;5084426;28;20049;-64
2022/09/08 11:47:25;;;;;;;8.98;1.90;;;31.90;53.90;;;;;;5089688;28;20040;-63
2022/09/08 11:50:28;;;;;;;4.15;1.55;;;32.00;53.80;;;;;;5065729;28;20093;-63
2022/09/08 11:53:04;;;;;;;5.50;1.60;;;32.00;53.80;;;;;;5072835;28;20056;-62
2022/09/08 11:55:44;;;;;;;5.35;1.60;;;31.90;54.00;;;;;;5085535;28;20058;-62
2022/09/08 11:58:16;;;;;;;5.70;1.38;;;31.90;54.00;;;;;;5051914;28;20025;-66
2022/09/08 12:01:20;;;;;;;5.45;1.58;;;31.90;54.00;;;;;;5083273;28;20053;-66
2022/09/08 12:04:06;;;;;;;7.18;1.58;;;31.90;54.10;;;;;;5083657;28;20043;-62
2022/09/08 12:06:49;;;;;;;8.45;1.67;;;31.70;54.20;;;;;;5059095;28;20057;-65
2022/09/08 12:09:22;;;;;;;3.13;1.50;;;31.80;53.90;;;;;;5083389;28;20766;-63
2022/09/08 12:12:06;;;;;;;6.00;1.35;;;31.80;53.90;;;;;;5083732;28;20444;-64
2022/09/08 12:14:57;;;;;;;9.90;1.20;;;31.80;53.90;;;;;;5070431;28;20737;-62
2022/09/08 12:17:51;;;;;;;8.15;1.35;;;31.80;53.90;;;;;;5068332;28;20029;-64
2022/09/08 12:20:40;;;;;;;12.48;1.65;;;31.70;54.00;;;;;;5084205;28;20042;-64
2022/09/08 12:23:34;;;;;;;10.25;1.30;;;31.90;59.70;;;;;;5052514;28;20044;-63
2022/09/08 12:26:25;;;;;;;6.65;1.58;;;31.70;54.10;;;;;;5071949;28;20556;-63
2022/09/08 12:29:10;;;;;;;8.77;1.90;;;31.70;54.40;;;;;;5070656;28;20121;-64
2022/09/08 12:31:36;;;;;;;10.30;2.28;;;31.70;54.80;;;;;;5083394;28;20046;-65
2022/09/08 12:35:00;;;;;;;13.48;2.75;;;31.50;55.30;;;;;;5066511;28;20069;-64
2022/09/08 12:37:58;;;;;;;20.40;2.85;;;31.50;55.70;;;;;;5046861;28;20056;-63
2022/09/08 12:40:39;;;;;;;9.32;1.83;;;31.40;56.20;;;;;;5030163;28;20040;-63
2022/09/08 12:43:25;;;;;;;13.73;2.10;;;31.30;56.10;;;;;;5043855;28;20102;-66
2022/09/08 12:46:25;;;;;;;9.93;2.10;;;31.30;56.10;;;;;;5033642;28;20053;-63
2022/09/08 12:49:15;;;;;;;12.07;2.08;;;31.30;56.00;;;;;;5046532;28;20596;-64
2022/09/08 12:51:42;;;;;;;15.75;1.88;;;31.40;56.20;;;;;;5043022;28;20493;-63
2022/09/08 12:54:23;;;;;;;19.92;2.35;;;31.40;55.60;;;;;;5045196;28;20494;-64
2022/09/08 12:57:08;;;;;;;13.15;1.92;;;31.40;54.90;;;;;;5045371;28;20056;-65
2022/09/08 12:59:55;;;;;;;14.18;1.80;;;31.50;54.10;;;;;;5044844;28;20028;-63
2022/09/08 13:02:43;;;;;;;12.13;2.05;;;31.50;54.00;;;;;;5046086;28;20427;-63
2022/09/08 13:05:43;;;;;;;17.60;2.25;;;31.60;53.90;;;;;;5029183;28;20070;-62
2022/09/08 13:08:34;;;;;;;20.88;2.00;;;31.60;53.80;;;;;;5058474;28;20437;-62
2022/09/08 13:11:31;;;;;;;14.70;1.60;;;31.70;53.70;;;;;;5070970;28;20495;-65
2022/09/08 13:14:09;;;;;;;8.48;1.70;;;31.70;53.90;;;;;;5072716;28;20057;-63
2022/09/08 13:16:47;;;;;;;16.23;2.08;;;31.70;54.00;;;;;;5066899;28;20129;-63
2022/09/08 13:19:52;;;;;;;13.43;1.80;;;31.80;54.30;;;;;;5073186;28;20050;-62
2022/09/08 13:22:44;;;;;;;10.60;2.05;;;31.80;54.30;;;;;;5055301;28;20539;-62
2022/09/08 13:25:30;;;;;;;18.70;2.58;;;31.80;54.50;;;;;;5070317;28;20169;-63
2022/09/08 13:28:20;;;;;;;14.70;2.13;;;31.80;54.80;;;;;;5052908;28;20075;-64
2022/09/08 13:31:15;;;;;;;15.25;2.65;;;31.70;54.90;;;;;;5084441;28;20527;-62
2022/09/08 13:34:02;;;;;;;10.00;2.10;;;31.70;55.20;;;;;;5085744;28;20063;-63
2022/09/08 13:36:53;;;;;;;10.93;2.35;;;31.70;55.20;;;;;;5066595;28;20111;-63
2022/09/08 13:39:30;;;;;;;5.03;1.83;;;31.70;55.50;;;;;;5085545;28;20049;-63